Du Bois, Illinois
Current Conditions -  °F | °C
As of 9:35 AM on Monday 24 Nov 2014 (Local Time) from KMVN Reporting Station
Overcast Overcast  
Wind Chill: 33°   Ceiling: 3000
Heat Index: 43°   Visibility: 10mi
Dew Point: 32°   Wind: 28mph
Humidity: 66%   Direction: 250°WSW
Pressure: 29.64"   Gusts: 33mph
Location:  38.22°N, 89.21°W
Report Text: KMVN 241535Z AUTO 25024G29KT 10SM BKN030 OVC035 06/00 A2964 RMK AO1
Loading
Personal Weather Stations






























Interactive Weather Map New forecast layout! Learn more

10-Day Weather Forecast

Advertisements
Track Severe Weather on mobile